createdAt,value
2022-10-14T00:00:56.280Z,101205.22
2022-10-14T00:03:40.255Z,101167.75
2022-10-14T00:06:20.239Z,101211.28
2022-10-14T00:08:56.786Z,101214.78
2022-10-14T00:14:55.401Z,101193.28
2022-10-14T00:17:49.917Z,101196.59
2022-10-14T00:20:33.813Z,101199.28
2022-10-14T00:23:32.962Z,101196.59
2022-10-14T00:26:08.291Z,101152.97
2022-10-14T00:28:47.594Z,101197.81
2022-10-14T00:31:26.685Z,101194.09
2022-10-14T00:34:04.814Z,101187.19
2022-10-14T00:36:58.451Z,101181.22
2022-10-14T00:39:56.918Z,101185.88
2022-10-14T00:45:42.618Z,101190.09
2022-10-14T00:48:28.117Z,101166.09
2022-10-14T00:51:15.378Z,101172.94
2022-10-14T00:54:01.561Z,101169.50
2022-10-14T00:57:01.220Z,101096.25
2022-10-14T00:59:51.266Z,101164.06
2022-10-14T01:02:36.950Z,101162.78
2022-10-14T01:05:32.406Z,101153.88
2022-10-14T01:08:21.956Z,101153.88
2022-10-14T01:11:07.508Z,101147.84
2022-10-14T01:13:59.904Z,101087.03
2022-10-14T01:16:46.970Z,101150.03
2022-10-14T01:20:06.798Z,101152.19
2022-10-14T01:26:11.609Z,101144.72
2022-10-14T01:29:05.421Z,101145.44
2022-10-14T01:32:13.852Z,101131.44
2022-10-14T01:35:21.768Z,101136.19
2022-10-14T01:38:24.801Z,101137.59
2022-10-14T01:41:18.976Z,101132.50
2022-10-14T01:44:12.310Z,101127.53
2022-10-14T01:47:09.037Z,101122.09
2022-10-14T01:49:49.436Z,101120.41
2022-10-14T01:55:28.730Z,101117.97
2022-10-14T01:58:12.631Z,101100.91
2022-10-14T02:00:55.388Z,101107.94
2022-10-14T02:03:44.324Z,101097.06
2022-10-14T02:06:27.827Z,101096.41
2022-10-14T02:09:29.037Z,101086.34
2022-10-14T02:12:33.344Z,101057.47
2022-10-14T02:15:33.593Z,101068.44
2022-10-14T02:18:36.275Z,101077.91
2022-10-14T02:21:39.780Z,101079.44
2022-10-14T02:24:26.811Z,101073.13
2022-10-14T02:27:12.202Z,101070.09
2022-10-14T02:30:08.036Z,101062.75
2022-10-14T02:32:57.212Z,101069.00
2022-10-14T02:35:32.220Z,101060.75
2022-10-14T02:38:12.063Z,101053.22
2022-10-14T02:41:07.305Z,101046.28
2022-10-14T02:43:51.894Z,101047.75
2022-10-14T02:46:29.980Z,101038.28
2022-10-14T02:49:20.127Z,101046.28
2022-10-14T02:52:02.588Z,101040.63
2022-10-14T02:54:43.211Z,101037.00
2022-10-14T02:57:30.133Z,101030.19
2022-10-14T03:00:22.000Z,101038.84
2022-10-14T03:02:56.747Z,101020.25
2022-10-14T03:05:47.214Z,101024.25
2022-10-14T03:08:25.594Z,101016.88
2022-10-14T03:11:37.715Z,101018.38
2022-10-14T03:14:29.922Z,101007.88
2022-10-14T03:17:14.488Z,101005.25
2022-10-14T03:20:02.957Z,101001.72
2022-10-14T03:22:58.209Z,101000.16
2022-10-14T03:25:38.621Z,100994.81
2022-10-14T03:28:24.044Z,100984.97
2022-10-14T03:31:00.197Z,100984.25
2022-10-14T03:33:36.784Z,100985.91
2022-10-14T03:36:45.044Z,100977.94
2022-10-14T03:39:26.854Z,100974.03
2022-10-14T03:42:05.657Z,100967.81
2022-10-14T03:44:48.578Z,100970.25
2022-10-14T03:47:42.041Z,100971.66
2022-10-14T03:53:12.734Z,100969.22
2022-10-14T03:55:58.373Z,100956.97
2022-10-14T03:58:52.125Z,100961.28
2022-10-14T04:01:55.164Z,100956.66
2022-10-14T04:04:34.419Z,100957.34
2022-10-14T04:07:22.722Z,100946.63
2022-10-14T04:10:12.010Z,100952.97
2022-10-14T04:12:44.780Z,100949.53
2022-10-14T04:18:35.045Z,100955.84
2022-10-14T04:21:20.366Z,100957.47
2022-10-14T04:24:34.878Z,100950.06
2022-10-14T04:27:10.361Z,100909.81
2022-10-14T04:29:47.928Z,100945.16
2022-10-14T04:32:27.108Z,100951.56
2022-10-14T04:35:20.243Z,100945.38
2022-10-14T04:37:58.882Z,100941.66
2022-10-14T04:40:48.378Z,100939.19
2022-10-14T04:46:19.840Z,100947.38
2022-10-14T04:48:56.654Z,100946.81
2022-10-14T04:51:57.404Z,100948.16
2022-10-14T04:54:42.417Z,100944.84
2022-10-14T04:57:38.602Z,100942.22
2022-10-14T05:00:26.399Z,100947.56
2022-10-14T05:03:14.150Z,100937.75
2022-10-14T05:06:03.351Z,100934.09
2022-10-14T05:09:02.518Z,100956.88
2022-10-14T05:12:00.056Z,100955.22
2022-10-14T05:14:52.524Z,100953.84
2022-10-14T05:17:47.248Z,100962.34
2022-10-14T05:20:26.586Z,100958.03
2022-10-14T05:23:43.541Z,100952.59
2022-10-14T05:26:47.114Z,100966.53
2022-10-14T05:29:29.263Z,100965.72
2022-10-14T05:32:23.706Z,100957.78
2022-10-14T05:34:59.417Z,100966.75
2022-10-14T05:37:40.966Z,100961.78
2022-10-14T05:40:26.188Z,100939.53
2022-10-14T05:46:05.037Z,100967.44
2022-10-14T05:48:54.289Z,100971.22
2022-10-14T05:51:49.248Z,100962.47
2022-10-14T05:54:39.626Z,100965.94
2022-10-14T05:57:16.906Z,100966.03
2022-10-14T06:03:02.685Z,100967.97
2022-10-14T06:05:47.286Z,100974.34
2022-10-14T06:08:23.593Z,100975.47
2022-10-14T06:11:16.757Z,100897.97
2022-10-14T06:14:14.735Z,100979.56
2022-10-14T06:17:32.467Z,100971.00
2022-10-14T06:20:34.344Z,100938.53
2022-10-14T06:23:12.648Z,100983.69
2022-10-14T06:26:15.505Z,100983.94
2022-10-14T06:28:56.756Z,100979.94
2022-10-14T06:31:37.688Z,100989.66
2022-10-14T06:34:29.575Z,100996.91
2022-10-14T06:37:09.932Z,100991.84
2022-10-14T06:40:08.846Z,100997.28
2022-10-14T06:42:49.841Z,101001.88
2022-10-14T06:45:38.248Z,100954.44
2022-10-14T06:48:57.141Z,101003.97
2022-10-14T06:51:46.804Z,101005.16
2022-10-14T06:54:25.303Z,101004.56
2022-10-14T07:00:23.564Z,101011.22
2022-10-14T07:06:11.253Z,100994.56
2022-10-14T07:08:51.648Z,101019.94
2022-10-14T07:11:37.579Z,100995.00
2022-10-14T07:14:14.562Z,101013.44
2022-10-14T07:17:02.038Z,101007.59
2022-10-14T07:19:40.632Z,101019.13
2022-10-14T07:22:26.203Z,101021.97
2022-10-14T07:25:18.378Z,101019.47
2022-10-14T07:28:00.544Z,101033.59
2022-10-14T07:30:38.103Z,101020.69
2022-10-14T07:33:27.664Z,101022.56
2022-10-14T07:36:21.596Z,101028.84
2022-10-14T07:39:04.419Z,101031.69
2022-10-14T07:41:53.867Z,101026.72
2022-10-14T07:44:29.179Z,101031.25
2022-10-14T07:47:15.773Z,101031.41
2022-10-14T07:49:59.205Z,101030.72
2022-10-14T07:52:41.607Z,101020.47
2022-10-14T07:55:27.213Z,101038.91
2022-10-14T07:58:09.924Z,101039.03
2022-10-14T08:00:52.694Z,101039.22
2022-10-14T08:03:46.925Z,101036.78
2022-10-14T08:06:36.010Z,101040.47
2022-10-14T08:09:17.385Z,101042.31
2022-10-14T08:11:57.604Z,101052.09
2022-10-14T08:15:00.843Z,101051.44
2022-10-14T08:17:46.788Z,101063.91
2022-10-14T08:20:36.011Z,101060.47
2022-10-14T08:23:10.727Z,101061.47
2022-10-14T08:25:49.291Z,101065.91
2022-10-14T08:28:28.173Z,101067.78
2022-10-14T08:31:29.911Z,101071.34
2022-10-14T08:34:10.360Z,101069.69
2022-10-14T08:36:44.966Z,101080.22
2022-10-14T08:39:40.466Z,101073.38
2022-10-14T08:42:44.326Z,101078.66
2022-10-14T08:45:37.668Z,101070.06
2022-10-14T08:48:23.293Z,101077.13
2022-10-14T08:51:02.353Z,101081.59
2022-10-14T08:53:59.781Z,101079.97
2022-10-14T08:56:44.151Z,101086.19
2022-10-14T08:59:29.073Z,101093.22
2022-10-14T09:02:19.432Z,101095.88
2022-10-14T09:05:15.339Z,101098.47
2022-10-14T09:08:04.871Z,101097.59
2022-10-14T09:10:47.049Z,101085.44
2022-10-14T09:13:42.678Z,101102.84
2022-10-14T09:16:25.585Z,101108.06
2022-10-14T09:19:03.205Z,101111.53
2022-10-14T09:21:58.810Z,101108.03
2022-10-14T09:24:56.977Z,101109.81
2022-10-14T09:27:33.505Z,101114.13
2022-10-14T09:30:33.972Z,101084.50
2022-10-14T09:33:21.722Z,101117.56
2022-10-14T09:36:07.072Z,101122.75
2022-10-14T09:38:47.754Z,101126.22
2022-10-14T09:41:28.124Z,101127.94
2022-10-14T09:44:28.112Z,101110.47
2022-10-14T09:47:12.989Z,101127.88
2022-10-14T09:50:03.482Z,101129.59
2022-10-14T09:55:49.761Z,101126.09
2022-10-14T09:58:52.099Z,101081.66
2022-10-14T10:01:36.528Z,101139.13
2022-10-14T10:04:41.055Z,101055.44
2022-10-14T10:07:34.199Z,101147.78
2022-10-14T10:10:30.956Z,101155.59
2022-10-14T10:13:41.482Z,101152.03
2022-10-14T10:16:36.052Z,101159.84
2022-10-14T10:19:48.438Z,101171.06
2022-10-14T10:22:42.824Z,101163.22
2022-10-14T10:25:28.788Z,101125.59
2022-10-14T10:28:48.678Z,101130.81
2022-10-14T10:31:50.959Z,101174.38
2022-10-14T10:35:05.721Z,101170.84
2022-10-14T10:38:21.122Z,101177.69
2022-10-14T10:41:13.541Z,101185.47
2022-10-14T10:44:28.657Z,101183.63
2022-10-14T10:47:29.551Z,101187.94
2022-10-14T10:50:37.515Z,101180.94
2022-10-14T10:53:45.097Z,101196.53
2022-10-14T10:56:33.231Z,101191.25
2022-10-14T10:59:36.264Z,101183.38
2022-10-14T11:02:53.081Z,101176.16
2022-10-14T11:05:49.890Z,101182.03
2022-10-14T11:09:16.839Z,101174.97
2022-10-14T11:12:25.728Z,101173.22
2022-10-14T11:18:12.706Z,101161.09
2022-10-14T11:21:13.801Z,101173.34
2022-10-14T11:27:34.295Z,101170.19
2022-10-14T11:30:23.957Z,101184.81
2022-10-14T11:33:33.884Z,101193.47
2022-10-14T11:36:32.506Z,101160.44
2022-10-14T11:39:34.769Z,101183.22
2022-10-14T11:42:59.761Z,101195.31
2022-10-14T11:46:04.061Z,101184.94
2022-10-14T11:48:47.787Z,101193.56
2022-10-14T11:51:33.286Z,101193.41
2022-10-14T11:54:29.629Z,101197.75
2022-10-14T11:57:18.171Z,101190.59
2022-10-14T12:00:12.229Z,101139.16
2022-10-14T12:03:06.240Z,101199.41
2022-10-14T12:05:52.219Z,101200.16
2022-10-14T12:08:35.550Z,101203.63
2022-10-14T12:11:18.506Z,101200.16
2022-10-14T12:14:05.169Z,101186.13
2022-10-14T12:16:41.214Z,101203.63
2022-10-14T12:19:28.147Z,101138.91
2022-10-14T12:22:23.532Z,101198.03
2022-10-14T12:25:11.041Z,101193.38
2022-10-14T12:28:02.872Z,101199.34
2022-10-14T12:31:00.016Z,101193.19
2022-10-14T12:34:31.343Z,101199.13
2022-10-14T12:37:28.764Z,101178.00
2022-10-14T12:40:32.806Z,101194.38
2022-10-14T12:43:28.001Z,101193.34
2022-10-14T12:46:34.896Z,101203.72
2022-10-14T12:49:25.854Z,101200.28
2022-10-14T12:52:14.573Z,101201.97
2022-10-14T12:55:00.416Z,101197.66
2022-10-14T13:00:51.163Z,101138.63
2022-10-14T13:03:35.725Z,101188.38
2022-10-14T13:06:47.362Z,101190.19
2022-10-14T13:09:44.668Z,101174.28
2022-10-14T13:12:54.763Z,101195.13
2022-10-14T13:19:26.531Z,101193.53
2022-10-14T13:22:08.447Z,101179.56
2022-10-14T13:25:02.865Z,101193.53
2022-10-14T13:27:49.313Z,101182.97
2022-10-14T13:30:44.652Z,101181.09
2022-10-14T13:33:46.472Z,101188.69
2022-10-14T13:36:40.606Z,101135.28
2022-10-14T13:39:38.208Z,101189.25
2022-10-14T13:42:22.609Z,101182.28
2022-10-14T13:45:02.904Z,101183.09
2022-10-14T13:47:55.667Z,101170.00
2022-10-14T13:50:49.206Z,101166.34
2022-10-14T13:53:45.020Z,101133.09
2022-10-14T13:56:37.690Z,101167.22
2022-10-14T13:59:43.945Z,101170.06
2022-10-14T14:02:29.486Z,101160.41
2022-10-14T14:05:33.020Z,101149.03
2022-10-14T14:08:43.804Z,101158.63
2022-10-14T14:11:35.430Z,101148.88
2022-10-14T14:14:22.325Z,101111.34
2022-10-14T14:19:50.472Z,101151.63
2022-10-14T14:23:09.576Z,101070.16
2022-10-14T14:26:14.335Z,101159.44
2022-10-14T14:28:45.418Z,101157.66
2022-10-14T14:31:33.644Z,101158.53
2022-10-14T14:34:28.514Z,101106.09
2022-10-14T14:37:56.430Z,101149.66
2022-10-14T14:40:30.912Z,101159.94
2022-10-14T14:43:14.900Z,101153.94
2022-10-14T14:49:13.869Z,101160.84
2022-10-14T14:51:54.552Z,101159.19
2022-10-14T14:54:32.315Z,101152.19
2022-10-14T14:57:19.165Z,101159.19
2022-10-14T15:00:16.536Z,101159.03
2022-10-14T15:03:27.953Z,101156.38
2022-10-14T15:09:20.783Z,101157.25
2022-10-14T15:12:10.236Z,101141.50
2022-10-14T15:15:08.499Z,101151.59
2022-10-14T15:17:48.486Z,101147.09
2022-10-14T15:20:44.273Z,101123.53
2022-10-14T15:24:11.225Z,101152.34
2022-10-14T15:26:48.367Z,101153.88
2022-10-14T15:29:34.953Z,101152.19
2022-10-14T15:32:25.325Z,101160.13
2022-10-14T15:35:11.965Z,101156.69
2022-10-14T15:37:53.959Z,101157.72
2022-10-14T15:40:48.696Z,101158.59
2022-10-14T15:43:32.246Z,101099.09
2022-10-14T15:46:31.843Z,101135.66
2022-10-14T15:52:17.814Z,101106.06
2022-10-14T15:55:14.382Z,101155.22
2022-10-14T15:58:01.637Z,101146.69
2022-10-14T16:00:38.871Z,101136.31
2022-10-14T16:03:35.998Z,101144.22
2022-10-14T16:06:45.273Z,101152.06
2022-10-14T16:12:26.870Z,101165.00
2022-10-14T16:15:02.853Z,101162.53
2022-10-14T16:17:52.841Z,101158.88
2022-10-14T16:20:43.214Z,101157.72
2022-10-14T16:23:33.403Z,101162.78
2022-10-14T16:26:09.219Z,101165.28
2022-10-14T16:28:54.997Z,101155.75
2022-10-14T16:31:42.348Z,101158.16
2022-10-14T16:34:29.305Z,101137.06
2022-10-14T16:37:15.021Z,101138.88
2022-10-14T16:39:55.010Z,101154.25
2022-10-14T16:42:52.337Z,101158.78
2022-10-14T16:45:41.853Z,101157.28
2022-10-14T16:48:23.090Z,101158.22
2022-10-14T16:51:16.080Z,101154.59
2022-10-14T16:54:01.606Z,101152.00
2022-10-14T16:57:02.620Z,101147.69
2022-10-14T16:59:47.443Z,101147.75
2022-10-14T17:02:45.336Z,101136.56
2022-10-14T17:05:50.347Z,101142.63
2022-10-14T17:08:36.056Z,101135.56
2022-10-14T17:11:24.803Z,101122.56
2022-10-14T17:14:13.625Z,101060.44
2022-10-14T17:17:11.151Z,101141.16
2022-10-14T17:20:07.082Z,101146.34
2022-10-14T17:22:50.808Z,101133.25
2022-10-14T17:25:31.107Z,101135.78
2022-10-14T17:28:09.169Z,101127.03
2022-10-14T17:30:56.075Z,101130.47
2022-10-14T17:33:40.819Z,101135.66
2022-10-14T17:36:20.592Z,101133.09
2022-10-14T17:42:24.916Z,101133.72
2022-10-14T17:45:03.343Z,101138.88
2022-10-14T17:50:51.823Z,101134.56
2022-10-14T17:53:34.314Z,101133.84
2022-10-14T17:56:13.201Z,101041.06
2022-10-14T17:59:11.823Z,101117.44
2022-10-14T18:02:02.787Z,101127.72
2022-10-14T18:04:53.244Z,101108.53
2022-10-14T18:07:41.684Z,101123.25
2022-10-14T18:10:33.077Z,101121.41
2022-10-14T18:13:19.486Z,101124.88
2022-10-14T18:16:16.714Z,101113.53
2022-10-14T18:18:58.336Z,101122.97
2022-10-14T18:21:48.542Z,101115.16
2022-10-14T18:24:34.904Z,101132.75
2022-10-14T18:27:13.514Z,101129.41
2022-10-14T18:30:06.453Z,101117.53
2022-10-14T18:33:03.460Z,101115.94
2022-10-14T18:35:44.054Z,101106.34
2022-10-14T18:38:26.942Z,101118.69
2022-10-14T18:41:17.477Z,101116.03
2022-10-14T18:44:08.566Z,101108.28
2022-10-14T18:46:47.130Z,101124.94
2022-10-14T18:49:32.396Z,101132.66
2022-10-14T18:52:10.830Z,101132.69
2022-10-14T18:54:55.727Z,101144.78
2022-10-14T18:57:34.902Z,101141.44
2022-10-14T19:00:14.328Z,101137.19
2022-10-14T19:03:07.095Z,101136.44
2022-10-14T19:05:55.107Z,101143.38
2022-10-14T19:08:38.084Z,101129.53
2022-10-14T19:11:26.461Z,101146.78
2022-10-14T19:14:09.876Z,101118.13
2022-10-14T19:17:26.393Z,101141.88
2022-10-14T19:20:23.117Z,101128.03
2022-10-14T19:23:48.936Z,101124.50
2022-10-14T19:26:34.492Z,101105.25
2022-10-14T19:29:16.756Z,101118.41
2022-10-14T19:31:58.521Z,101089.41
2022-10-14T19:34:49.852Z,101134.19
2022-10-14T19:37:31.222Z,101143.94
2022-10-14T19:40:10.207Z,101143.09
2022-10-14T19:42:48.211Z,101144.00
2022-10-14T19:45:50.270Z,101154.41
2022-10-14T19:48:36.481Z,101142.22
2022-10-14T19:51:48.776Z,101131.75
2022-10-14T19:54:27.873Z,101134.56
2022-10-14T19:57:07.766Z,101133.63
2022-10-14T20:00:15.529Z,101133.53
2022-10-14T20:02:56.120Z,101128.16
2022-10-14T20:05:55.945Z,101091.53
2022-10-14T20:08:33.172Z,101128.28
2022-10-14T20:11:45.844Z,101124.84
2022-10-14T20:14:36.345Z,101117.19
2022-10-14T20:20:05.537Z,101118.91
2022-10-14T20:22:43.151Z,101126.66
2022-10-14T20:25:37.013Z,101112.81
2022-10-14T20:28:16.153Z,101118.13
2022-10-14T20:31:03.469Z,101103.28
2022-10-14T20:33:49.754Z,101111.13
2022-10-14T20:36:35.769Z,101111.94
2022-10-14T20:39:14.740Z,101116.22
2022-10-14T20:41:50.509Z,101113.69
2022-10-14T20:47:40.714Z,101121.34
2022-10-14T20:50:26.129Z,101115.16
2022-10-14T20:53:15.314Z,101124.66
2022-10-14T20:55:53.395Z,101113.53
2022-10-14T20:58:38.567Z,101113.53
2022-10-14T21:01:33.230Z,101122.31
2022-10-14T21:04:27.687Z,101016.41
2022-10-14T21:07:10.196Z,101126.28
2022-10-14T21:09:54.009Z,101130.19
2022-10-14T21:12:31.069Z,101122.94
2022-10-14T21:15:16.159Z,101125.69
2022-10-14T21:18:03.858Z,101118.78
2022-10-14T21:20:48.405Z,101128.50
2022-10-14T21:26:25.652Z,101092.22
2022-10-14T21:29:11.010Z,101130.84
2022-10-14T21:32:01.620Z,101123.91
2022-10-14T21:34:43.814Z,101130.13
2022-10-14T21:37:36.992Z,101132.00
2022-10-14T21:40:24.183Z,101122.50
2022-10-14T21:43:09.280Z,101140.97
2022-10-14T21:45:59.362Z,101139.25
2022-10-14T21:48:40.795Z,101142.56
2022-10-14T21:51:57.909Z,101146.16
2022-10-14T21:57:34.591Z,101148.53
2022-10-14T22:00:20.321Z,101135.66
2022-10-14T22:03:00.363Z,101135.75
2022-10-14T22:05:54.421Z,101130.66
2022-10-14T22:08:40.215Z,101137.78
2022-10-14T22:11:33.094Z,101132.81
2022-10-14T22:14:21.055Z,101102.47
2022-10-14T22:17:15.264Z,101147.16
2022-10-14T22:20:05.128Z,101150.84
2022-10-14T22:22:48.614Z,101144.03
2022-10-14T22:25:28.772Z,101145.94
2022-10-14T22:28:35.757Z,101144.34
2022-10-14T22:31:25.241Z,101133.19
2022-10-14T22:34:12.683Z,101153.31
2022-10-14T22:37:10.668Z,101155.22
2022-10-14T22:39:50.416Z,101153.72
2022-10-14T22:42:40.515Z,101144.22
2022-10-14T22:45:17.982Z,101153.94
2022-10-14T22:53:34.691Z,101161.13
2022-10-14T22:56:10.058Z,101156.09
2022-10-14T22:58:53.119Z,101147.59
2022-10-14T23:04:41.574Z,101123.41
2022-10-14T23:10:51.829Z,101160.13
2022-10-14T23:13:51.144Z,101166.28
2022-10-14T23:16:37.085Z,101168.94
2022-10-14T23:19:18.772Z,101179.38
2022-10-14T23:22:10.342Z,101179.34
2022-10-14T23:25:05.323Z,101185.41
2022-10-14T23:28:16.552Z,101180.19
2022-10-14T23:31:01.437Z,101179.34
2022-10-14T23:33:49.261Z,101153.31
2022-10-14T23:36:27.358Z,101181.34
2022-10-14T23:39:08.568Z,101176.19
2022-10-14T23:41:52.877Z,101186.75
2022-10-14T23:44:32.195Z,101184.19
2022-10-14T23:50:10.499Z,101179.94
2022-10-14T23:52:50.355Z,101185.16
2022-10-14T23:55:34.918Z,101180.03
2022-10-14T23:58:29.715Z,101174.84
